Time;durP1;ratioP1;P1;durP2;ratioP2;P2;SDS_P1;SDS_P2;PMS_P1;PMS_P2;Temp;Humidity;BMP_temperature;BMP_pressure;BME280_temperature;BME280_humidity;BME280_pressure;Samples;Min_cycle;Max_cycle;Signal;HPM_P1;HPM_P2
2021/10/18 00:02:14;;;;;;;;;19.25;17.75;;;;;15.71;47.26;98993.28;4796374;28;104774;-84
2021/10/18 00:04:41;;;;;;;;;22.00;21.50;;;;;15.71;47.30;98998.72;4789123;28;103822;-84
2021/10/18 00:07:08;;;;;;;;;23.50;20.00;;;;;15.70;47.65;98997.88;4804019;28;102377;-83
2021/10/18 00:09:35;;;;;;;;;15.00;14.25;;;;;15.71;47.48;98996.84;4820903;28;102770;-84
2021/10/18 00:12:03;;;;;;;;;23.75;19.50;;;;;15.71;47.29;99004.19;4810418;28;102731;-84
2021/10/18 00:14:30;;;;;;;;;21.50;19.25;;;;;15.70;47.33;98997.06;4809131;28;104132;-84
2021/10/18 00:16:57;;;;;;;;;20.50;20.00;;;;;15.71;47.58;99001.47;4819673;28;102590;-84
2021/10/18 00:19:24;;;;;;;;;19.75;19.00;;;;;15.69;47.64;99001.66;4823645;28;102288;-84
2021/10/18 00:21:51;;;;;;;;;17.25;16.75;;;;;15.69;47.60;99007.13;4823209;28;102305;-84
2021/10/18 00:24:19;;;;;;;;;22.75;19.00;;;;;15.69;47.10;99003.56;4799789;28;104278;-84
2021/10/18 00:26:46;;;;;;;;;20.75;19.50;;;;;15.70;47.26;99002.50;4820967;28;104255;-84
2021/10/18 00:29:13;;;;;;;;;24.75;21.50;;;;;15.69;47.48;99004.41;4822150;28;105307;-83
2021/10/18 00:31:40;;;;;;;;;18.25;16.50;;;;;15.70;47.18;99002.50;4815625;28;102309;-84
2021/10/18 00:34:07;;;;;;;;;23.00;20.00;;;;;15.65;47.69;98995.00;4810947;28;104118;-82
2021/10/18 00:36:34;;;;;;;;;22.00;20.25;;;;;15.67;47.15;98998.31;4800726;28;104189;-84
2021/10/18 00:39:01;;;;;;;;;21.50;18.25;;;;;15.68;46.96;98993.69;4812727;28;103627;-84
2021/10/18 00:41:30;;;;;;;;;20.00;16.75;;;;;15.68;47.48;98991.81;4797434;28;102652;-84
2021/10/18 00:43:58;;;;;;;;;24.75;19.25;;;;;15.68;47.52;98988.25;4807296;28;104091;-84
2021/10/18 00:46:25;;;;;;;;;17.00;16.00;;;;;15.68;47.68;98980.91;4800833;28;102625;-84
2021/10/18 00:48:53;;;;;;;;;21.75;18.75;;;;;15.68;47.46;98980.91;4812786;28;105336;-84
2021/10/18 00:51:25;;;;;;;;;23.00;16.75;;;;;15.68;47.01;98980.91;4813325;28;103078;-84
2021/10/18 00:53:53;;;;;;;;;21.50;18.75;;;;;15.68;47.77;98982.78;4817494;28;104128;-84
2021/10/18 00:56:20;;;;;;;;;26.50;20.00;;;;;15.66;46.84;98974.88;4818596;28;102637;-83
2021/10/18 00:58:48;;;;;;;;;19.00;17.00;;;;;15.67;47.01;98987.41;4815132;28;102292;-84
2021/10/18 01:01:16;;;;;;;;;22.50;20.50;;;;;15.68;47.11;98988.25;4791727;28;102720;-83
2021/10/18 01:03:44;;;;;;;;;22.50;19.00;;;;;15.67;47.10;98987.41;4797112;28;109067;-84
2021/10/18 01:06:11;;;;;;;;;22.50;17.50;;;;;15.68;47.16;98986.38;4786270;28;103018;-83
2021/10/18 01:08:38;;;;;;;;;21.50;18.00;;;;;15.67;47.34;98992.06;4794700;28;102465;-84
2021/10/18 01:11:06;;;;;;;;;23.50;20.50;;;;;15.66;47.06;98980.31;4770107;28;102669;-84
2021/10/18 01:13:33;;;;;;;;;23.75;19.75;;;;;15.65;47.30;98978.63;4825345;28;104342;-84
2021/10/18 01:16:05;;;;;;;;;16.25;14.75;;;;;15.66;47.63;98982.22;4788800;28;105193;-84
2021/10/18 01:18:33;;;;;;;;;23.50;18.75;;;;;15.65;47.16;98984.09;4808766;28;102238;-84
2021/10/18 01:21:01;;;;;;;;;27.50;21.50;;;;;15.65;47.41;98978.63;4816954;28;103156;-84
2021/10/18 01:23:28;;;;;;;;;19.25;17.50;;;;;15.65;47.34;98978.63;4808050;28;104367;-84
2021/10/18 01:25:55;;;;;;;;;20.50;18.50;;;;;15.63;47.51;98973.41;4820936;28;103220;-84
2021/10/18 01:28:22;;;;;;;;;25.00;19.25;;;;;15.66;46.99;98984.94;4813504;28;103035;-84
2021/10/18 01:30:50;;;;;;;;;18.75;14.25;;;;;15.65;47.49;98981.38;4810472;28;102220;-84
2021/10/18 01:33:17;;;;;;;;;18.50;17.25;;;;;15.66;47.40;98980.31;4809536;28;104259;-84
2021/10/18 01:35:46;;;;;;;;;22.75;20.50;;;;;15.65;47.04;98986.81;4812861;28;102439;-83
2021/10/18 01:38:13;;;;;;;;;24.00;19.50;;;;;15.65;47.31;98977.81;4809714;28;102321;-83
2021/10/18 01:40:40;;;;;;;;;21.00;19.00;;;;;15.65;47.08;98983.25;4818658;28;102278;-84
2021/10/18 01:43:07;;;;;;;;;21.00;18.75;;;;;15.64;47.20;98982.41;4816930;28;108309;-84
2021/10/18 01:45:34;;;;;;;;;21.50;20.00;;;;;15.65;47.11;98983.25;4815412;28;102247;-84
2021/10/18 01:48:01;;;;;;;;;20.50;17.75;;;;;15.64;47.34;98982.41;4819519;28;102611;-84
2021/10/18 01:50:29;;;;;;;;;21.00;20.25;;;;;15.64;47.40;98982.41;4802590;28;103259;-83
2021/10/18 01:52:56;;;;;;;;;20.50;17.50;;;;;15.61;47.56;98981.00;4796252;28;104361;-84
2021/10/18 01:55:23;;;;;;;;;20.25;19.25;;;;;15.63;47.45;98987.03;4820105;28;103177;-84
2021/10/18 01:57:51;;;;;;;;;27.50;22.00;;;;;15.63;46.95;98981.59;4825094;28;102609;-84
2021/10/18 02:00:18;;;;;;;;;21.75;16.75;;;;;15.63;47.27;98986.19;4814513;28;102630;-84
2021/10/18 02:02:46;;;;;;;;;22.75;20.75;;;;;15.61;47.26;98982.88;4821955;28;105079;-83
2021/10/18 02:05:15;;;;;;;;;20.50;19.25;;;;;15.63;47.33;98980.75;4814730;28;102694;-83
2021/10/18 02:07:45;;;;;;;;;24.75;20.25;;;;;15.63;47.70;98983.47;4824002;28;102660;-84
2021/10/18 02:10:12;;;;;;;;;18.75;17.25;;;;;15.63;47.09;98986.19;4809042;28;102908;-84
2021/10/18 02:12:39;;;;;;;;;23.00;22.75;;;;;15.62;46.94;98984.56;4788698;28;108776;-84
2021/10/18 02:15:06;;;;;;;;;21.25;18.00;;;;;15.62;47.04;98990.00;4825341;28;102685;-84
2021/10/18 02:17:34;;;;;;;;;19.00;16.50;;;;;15.62;47.16;98984.56;4824731;28;102058;-84
2021/10/18 02:20:01;;;;;;;;;21.75;20.00;;;;;15.62;47.15;98988.09;4831243;28;102988;-83
2021/10/18 02:22:28;;;;;;;;;23.25;21.50;;;;;15.62;47.56;98990.00;4826303;28;105008;-84
2021/10/18 02:24:56;;;;;;;;;21.00;19.50;;;;;15.62;47.28;98995.47;4826303;28;104253;-84
2021/10/18 02:27:23;;;;;;;;;21.50;20.50;;;;;15.61;47.34;98991.91;4828141;28;103219;-84
2021/10/18 02:29:50;;;;;;;;;21.25;19.00;;;;;15.61;47.60;98989.16;4824196;28;102969;-84
2021/10/18 02:32:17;;;;;;;;;16.75;11.75;;;;;15.60;47.27;98983.94;4823759;28;104095;-84
2021/10/18 02:34:44;;;;;;;;;21.50;20.25;;;;;15.60;47.30;98976.59;4825834;28;103145;-83
2021/10/18 02:37:11;;;;;;;;;19.00;19.00;;;;;15.60;47.27;98982.03;4824000;28;102499;-84
2021/10/18 02:39:39;;;;;;;;;20.50;18.50;;;;;15.61;47.10;98982.88;4823576;28;102548;-84
2021/10/18 02:42:06;;;;;;;;;22.25;20.25;;;;;15.58;47.26;98961.50;4828604;28;104106;-84
2021/10/18 02:44:33;;;;;;;;;19.75;17.50;;;;;15.60;46.75;98971.13;4827292;28;102329;-84
2021/10/18 02:46:59;;;;;;;;;26.50;20.00;;;;;15.59;47.13;98969.47;4826846;28;102617;-84
2021/10/18 02:49:26;;;;;;;;;21.75;20.50;;;;;15.59;47.65;98974.06;4825051;28;102189;-84
2021/10/18 02:51:53;;;;;;;;;20.25;18.25;;;;;15.60;47.29;98975.75;4810921;28;103416;-84
2021/10/18 02:54:20;;;;;;;;;19.25;19.00;;;;;15.60;47.33;98978.47;4823878;28;102573;-84
2021/10/18 02:56:47;;;;;;;;;21.50;19.50;;;;;15.60;47.53;98981.19;4819720;28;102041;-83
2021/10/18 02:59:14;;;;;;;;;20.75;19.25;;;;;15.60;47.29;98981.19;4824067;28;109665;-83
2021/10/18 03:01:41;;;;;;;;;23.75;18.50;;;;;15.60;47.43;98986.66;4827470;28;108905;-84
2021/10/18 03:04:11;;;;;;;;;21.50;18.75;;;;;15.61;47.07;98982.88;4824370;28;104069;-84
2021/10/18 03:06:38;;;;;;;;;20.50;19.00;;;;;15.60;47.01;98984.75;4822732;28;103327;-84
2021/10/18 03:09:06;;;;;;;;;20.25;18.75;;;;;15.60;47.31;98975.75;4824816;28;111780;-84
2021/10/18 03:11:33;;;;;;;;;26.00;22.00;;;;;15.59;47.15;98974.06;4825029;28;103195;-84
2021/10/18 03:14:00;;;;;;;;;20.50;18.00;;;;;15.58;47.10;98984.13;4822421;28;102835;-84
2021/10/18 03:16:27;;;;;;;;;26.00;20.75;;;;;15.58;47.48;98978.69;4809320;28;102643;-84
2021/10/18 03:18:54;;;;;;;;;21.75;17.75;;;;;15.57;47.31;98984.38;4825029;28;103017;-84
2021/10/18 03:21:22;;;;;;;;;17.50;17.50;;;;;15.58;47.09;98977.84;4824583;28;104001;-84
2021/10/18 03:23:49;;;;;;;;;20.25;17.75;;;;;15.58;47.12;98973.25;4825639;28;102405;-84
2021/10/18 03:26:16;;;;;;;;;20.50;17.75;;;;;15.58;47.12;98975.13;4820830;28;102304;-83
2021/10/18 03:28:43;;;;;;;;;16.50;15.00;;;;;15.58;47.28;98986.03;4831288;28;102692;-84
2021/10/18 03:31:10;;;;;;;;;21.25;17.50;;;;;15.58;47.28;98983.31;4820891;28;104036;-84
2021/10/18 03:33:38;;;;;;;;;23.75;22.00;;;;;15.59;47.21;98998.59;4817744;28;102933;-84
2021/10/18 03:36:06;;;;;;;;;23.25;20.50;;;;;15.58;47.35;98988.75;4819487;28;102233;-84
2021/10/18 03:38:33;;;;;;;;;19.75;18.25;;;;;15.57;47.17;98993.41;4828677;28;102121;-84
2021/10/18 03:41:00;;;;;;;;;19.25;18.25;;;;;15.56;47.14;98986.28;4822214;28;104208;-84
2021/10/18 03:43:27;;;;;;;;;18.50;17.50;;;;;15.59;46.89;98998.59;4803462;28;102513;-84
2021/10/18 03:45:54;;;;;;;;;22.75;19.75;;;;;15.59;47.26;98998.59;4826548;28;103449;-84
2021/10/18 03:48:22;;;;;;;;;19.00;17.75;;;;;15.58;47.32;98994.22;4821966;28;102716;-83
2021/10/18 03:50:49;;;;;;;;;18.50;17.00;;;;;15.58;47.51;99007.84;4828945;28;104439;-84
2021/10/18 03:53:16;;;;;;;;;19.50;19.00;;;;;15.56;47.37;99004.50;4836918;28;102580;-82
2021/10/18 03:55:43;;;;;;;;;23.25;19.50;;;;;15.56;47.31;99002.63;4830573;28;102609;-84
2021/10/18 03:58:10;;;;;;;;;18.75;18.00;;;;;15.57;47.20;99014.38;4821714;28;102711;-84
2021/10/18 04:00:37;;;;;;;;;17.50;16.00;;;;;15.56;47.42;99008.09;4814238;28;104252;-84
2021/10/18 04:03:04;;;;;;;;;22.25;18.25;;;;;15.56;47.20;99007.25;4819201;28;102485;-84
2021/10/18 04:05:31;;;;;;;;;22.75;14.00;;;;;15.56;47.42;99007.25;4815455;28;105163;-84
2021/10/18 04:07:59;;;;;;;;;19.25;17.25;;;;;15.56;47.49;99018.16;4820357;28;102580;-84
2021/10/18 04:10:26;;;;;;;;;20.50;18.00;;;;;15.56;47.19;99023.59;4811965;28;104084;-84
2021/10/18 04:12:53;;;;;;;;;21.75;17.75;;;;;15.55;47.14;99020.03;4814425;28;103174;-83
2021/10/18 04:15:20;;;;;;;;;18.50;16.75;;;;;15.56;47.27;99020.88;4825285;28;102585;-84
2021/10/18 04:17:47;;;;;;;;;21.00;20.00;;;;;15.56;47.10;99023.59;4819005;28;102445;-83
2021/10/18 04:20:14;;;;;;;;;21.75;17.25;;;;;15.55;47.19;99036.38;4827618;28;104094;-83
2021/10/18 04:22:45;;;;;;;;;23.00;19.25;;;;;15.55;47.48;99038.28;4819754;28;102964;-84
2021/10/18 04:25:15;;;;;;;;;22.00;19.25;;;;;15.56;47.33;99035.34;4816213;28;102619;-84
2021/10/18 04:27:43;;;;;;;;;21.25;17.25;;;;;15.55;47.05;99032.81;4821601;28;102249;-84
2021/10/18 04:30:10;;;;;;;;;19.50;17.50;;;;;15.55;47.39;99036.38;4800508;28;104085;-84
2021/10/18 04:32:37;;;;;;;;;24.00;20.75;;;;;15.56;47.36;99040.78;4807352;28;104559;-84
2021/10/18 04:35:04;;;;;;;;;23.00;20.75;;;;;15.58;47.59;99046.00;4811028;28;102445;-83
2021/10/18 04:37:31;;;;;;;;;24.25;20.00;;;;;15.55;47.34;99046.44;4822378;28;102620;-84
2021/10/18 04:39:58;;;;;;;;;22.25;18.25;;;;;15.55;47.33;99041.84;4818366;28;103335;-84
2021/10/18 04:42:25;;;;;;;;;22.00;18.25;;;;;15.54;47.35;99045.63;4827845;28;102720;-83
2021/10/18 04:44:52;;;;;;;;;23.50;19.00;;;;;15.55;47.66;99052.75;4828436;28;102386;-84
2021/10/18 04:47:19;;;;;;;;;24.75;19.75;;;;;15.55;47.30;99046.44;4826114;28;102782;-84
2021/10/18 04:49:46;;;;;;;;;22.50;20.00;;;;;15.56;47.33;99050.84;4824607;28;104101;-84
2021/10/18 04:52:13;;;;;;;;;23.25;16.50;;;;;15.55;47.39;99060.06;4832640;28;102307;-84
2021/10/18 04:54:40;;;;;;;;;21.25;19.25;;;;;15.55;47.57;99060.91;4826241;28;103361;-84
2021/10/18 04:57:07;;;;;;;;;24.50;22.00;;;;;15.56;47.62;99056.31;4809406;28;102652;-83
2021/10/18 04:59:34;;;;;;;;;15.25;14.50;;;;;15.57;47.63;99068.88;4829639;28;104305;-83
2021/10/18 05:02:01;;;;;;;;;19.25;18.50;;;;;15.55;47.43;99060.06;4818380;28;103244;-84
2021/10/18 05:04:29;;;;;;;;;19.00;17.00;;;;;15.55;47.40;99073.72;4819996;28;103277;-83
2021/10/18 05:06:56;;;;;;;;;23.75;20.50;;;;;15.56;47.24;99072.66;4832866;28;102316;-83
2021/10/18 05:09:23;;;;;;;;;25.25;21.00;;;;;15.54;47.46;99069.31;4825993;28;104040;-84
2021/10/18 05:11:50;;;;;;;;;20.50;18.25;;;;;15.55;47.32;99077.28;4831745;28;102324;-83
2021/10/18 05:14:17;;;;;;;;;18.75;16.00;;;;;15.55;47.14;99073.72;4835254;28;102255;-80
2021/10/18 05:16:44;;;;;;;;;17.75;17.00;;;;;15.55;47.40;99081.88;4800799;29;103657;-79
2021/10/18 05:19:11;;;;;;;;;22.75;19.50;;;;;15.54;47.67;99089.22;4833603;28;104121;-80
2021/10/18 05:21:38;;;;;;;;;23.75;18.75;;;;;15.55;47.63;99090.06;4837631;28;102247;-80
2021/10/18 05:24:05;;;;;;;;;18.75;15.75;;;;;15.55;47.42;99098.25;4828975;28;104086;-80
2021/10/18 05:26:32;;;;;;;;;20.25;19.50;;;;;15.54;47.13;99093.84;4835441;28;102205;-80
2021/10/18 05:29:00;;;;;;;;;19.50;16.75;;;;;15.55;47.19;99101.81;4839665;28;103416;-80
2021/10/18 05:31:27;;;;;;;;;16.50;16.00;;;;;15.55;47.13;99098.25;4824407;28;102103;-80
2021/10/18 05:33:57;;;;;;;;;21.25;19.25;;;;;15.52;46.92;99099.53;4829493;28;102199;-80
2021/10/18 05:36:24;;;;;;;;;16.00;13.50;;;;;15.56;47.30;99105.38;4839641;28;102516;-80
2021/10/18 05:38:51;;;;;;;;;20.75;18.75;;;;;15.55;47.55;99109.16;4826310;28;104010;-80
2021/10/18 05:41:18;;;;;;;;;25.75;18.75;;;;;15.53;47.59;99112.09;4837542;28;109229;-79
2021/10/18 05:43:45;;;;;;;;;18.25;17.25;;;;;15.54;47.31;99113.75;4831251;28;103820;-80
2021/10/18 05:46:12;;;;;;;;;19.25;16.75;;;;;15.54;47.43;99118.38;4827670;28;102563;-80
2021/10/18 05:48:39;;;;;;;;;20.25;17.75;;;;;15.53;47.18;99111.28;4832838;28;104253;-80
2021/10/18 05:51:06;;;;;;;;;18.75;16.25;;;;;15.54;47.49;99113.75;4828732;28;102080;-80
2021/10/18 05:53:33;;;;;;;;;18.75;17.50;;;;;15.54;47.20;99124.66;4834133;28;105038;-80
2021/10/18 05:56:00;;;;;;;;;21.00;16.75;;;;;15.54;47.40;99124.66;4836120;28;102768;-80
2021/10/18 05:58:27;;;;;;;;;22.75;18.50;;;;;15.54;47.44;99126.53;4826849;28;103404;-80
2021/10/18 06:00:54;;;;;;;;;23.75;18.75;;;;;15.53;47.48;99120.28;4841274;28;102060;-80
2021/10/18 06:03:21;;;;;;;;;21.75;20.00;;;;;15.53;46.91;99128.47;4818568;28;102157;-80
2021/10/18 06:05:51;;;;;;;;;21.75;20.50;;;;;15.54;47.54;99143.75;4830555;28;104102;-80
2021/10/18 06:08:38;;;;;;;;;18.75;17.50;;;;;15.55;47.35;99141.84;4835238;28;105752;-80
2021/10/18 06:11:05;;;;;;;;;17.50;13.75;;;;;15.54;47.25;99135.56;4828950;28;102427;-80
2021/10/18 06:13:32;;;;;;;;;21.75;19.25;;;;;15.54;47.35;99138.28;4828192;28;102535;-80
2021/10/18 06:15:59;;;;;;;;;16.75;16.00;;;;;15.53;47.35;99144.81;4845272;28;102433;-80
2021/10/18 06:18:27;;;;;;;;;19.50;17.00;;;;;15.53;47.33;99150.28;4829438;28;104192;-80
2021/10/18 06:20:55;;;;;;;;;22.50;19.00;;;;;15.49;47.33;99148.97;4838993;28;102456;-80
2021/10/18 06:23:22;;;;;;;;;22.00;19.00;;;;;15.53;46.87;99149.44;4817616;28;103033;-80
2021/10/18 06:25:49;;;;;;;;;19.75;18.00;;;;;15.52;47.40;99159.50;4831771;28;102292;-80
2021/10/18 06:28:16;;;;;;;;;20.75;16.50;;;;;15.52;47.44;99156.78;4836639;28;103435;-80
2021/10/18 06:30:43;;;;;;;;;18.25;16.50;;;;;15.53;47.31;99168.50;4835788;28;102498;-80
2021/10/18 06:33:11;;;;;;;;;14.75;13.00;;;;;15.53;47.49;99165.78;4828949;28;102405;-80
2021/10/18 06:41:08;;;;;;;;;22.25;16.75;;;;;15.54;47.54;99171.00;4902133;23;102589;-87
2021/10/18 06:43:35;;;;;;;;;5.75;2.50;;;;;15.54;47.54;99161.97;4859980;28;102679;-87
2021/10/18 06:46:02;;;;;;;;;20.50;16.00;;;;;15.52;47.45;99169.56;4851703;28;102902;-87
2021/10/18 06:48:29;;;;;;;;;22.25;19.50;;;;;15.53;47.33;99172.06;4873186;28;104088;-84
2021/10/18 06:50:56;;;;;;;;;19.00;16.50;;;;;15.53;47.56;99173.97;4871225;28;102266;-84
2021/10/18 06:53:34;;;;;;;;;19.25;15.50;;;;;15.53;47.49;99171.22;4870228;28;102280;-84
2021/10/18 06:56:05;;;;;;;;;17.00;14.25;;;;;15.51;47.60;99178.78;4860553;28;102724;-84
2021/10/18 06:58:33;;;;;;;;;18.50;16.25;;;;;15.53;47.32;99182.13;4860103;28;104070;-84
2021/10/18 07:01:00;;;;;;;;;17.25;14.25;;;;;15.53;47.31;99182.13;4868743;28;102437;-84
2021/10/18 07:03:28;;;;;;;;;15.50;14.25;;;;;15.51;47.47;99184.22;4871633;28;102304;-84
2021/10/18 07:05:55;;;;;;;;;15.25;12.75;;;;;15.52;47.50;99189.47;4872223;28;103947;-84
2021/10/18 07:08:22;;;;;;;;;20.50;17.25;;;;;15.51;47.54;99189.69;4862641;28;104024;-84
2021/10/18 07:10:49;;;;;;;;;14.25;12.25;;;;;15.51;47.51;99195.97;4877488;28;104075;-83
2021/10/18 07:13:16;;;;;;;;;18.00;16.00;;;;;15.52;47.51;99197.66;4871371;28;102259;-84
2021/10/18 07:15:43;;;;;;;;;20.00;16.75;;;;;15.52;47.44;99202.25;4864080;28;102476;-84
2021/10/18 07:18:10;;;;;;;;;15.25;14.00;;;;;15.52;47.40;99213.16;4865921;28;104046;-84
2021/10/18 07:20:37;;;;;;;;;17.50;14.75;;;;;15.53;47.37;99214.84;4871920;28;102535;-84
2021/10/18 07:23:10;;;;;;;;;20.75;15.00;;;;;15.53;47.30;99214.84;4867205;28;105560;-84
2021/10/18 07:25:39;;;;;;;;;22.50;15.75;;;;;15.53;47.21;99217.56;4864854;28;102427;-85
2021/10/18 07:28:07;;;;;;;;;17.75;15.00;;;;;15.52;47.53;99216.72;4874152;28;104258;-84
2021/10/18 07:30:34;;;;;;;;;14.50;12.75;;;;;15.52;47.24;99219.47;4863677;28;102585;-84
2021/10/18 07:33:01;;;;;;;;;15.25;12.50;;;;;15.51;47.37;99225.13;4866553;28;102267;-84
2021/10/18 07:35:33;;;;;;;;;15.75;15.00;;;;;15.51;47.38;99222.38;4869947;28;102292;-84
2021/10/18 07:38:01;;;;;;;;;18.25;13.00;;;;;15.51;47.62;99216.94;4872690;28;103911;-84
2021/10/18 07:40:28;;;;;;;;;13.50;12.75;;;;;15.51;47.47;99233.28;4870880;28;102217;-85
2021/10/18 07:42:55;;;;;;;;;16.75;14.50;;;;;15.49;47.43;99228.00;4863713;28;104106;-84
2021/10/18 07:45:22;;;;;;;;;14.50;12.25;;;;;15.51;47.51;99236.03;4862396;28;102565;-84
2021/10/18 07:47:49;;;;;;;;;16.50;13.00;;;;;15.50;47.15;99231.59;4872317;28;104163;-84
2021/10/18 07:50:16;;;;;;;;;15.50;13.00;;;;;15.49;47.50;99221.75;4873325;28;102630;-84
2021/10/18 07:52:43;;;;;;;;;17.00;15.00;;;;;15.50;47.35;99231.59;4871875;28;102354;-85
2021/10/18 07:55:16;;;;;;;;;20.75;15.75;;;;;15.51;47.24;99234.13;4844919;28;102387;-84
2021/10/18 07:57:45;;;;;;;;;14.00;11.00;;;;;15.51;47.31;99236.03;4850357;28;104332;-84
2021/10/18 08:00:12;;;;;;;;;9.00;8.75;;;;;15.50;47.41;99228.84;4855522;28;102222;-84
2021/10/18 08:02:39;;;;;;;;;16.25;11.75;;;;;15.52;47.00;99241.25;4869913;28;102592;-84
2021/10/18 08:05:07;;;;;;;;;13.50;12.75;;;;;15.51;47.28;99239.59;4870908;28;102447;-84
2021/10/18 08:07:38;;;;;;;;;12.00;11.25;;;;;15.50;47.55;99239.75;4867404;28;104004;-84
2021/10/18 08:10:06;;;;;;;;;14.50;14.50;;;;;15.50;47.34;99242.47;4858757;28;102364;-84
2021/10/18 08:12:34;;;;;;;;;12.25;11.50;;;;;15.49;47.53;99241.66;4859000;28;102614;-84
2021/10/18 08:15:01;;;;;;;;;13.25;12.00;;;;;15.49;47.40;99249.00;4873639;28;104165;-84
2021/10/18 08:17:29;;;;;;;;;7.25;4.75;;;;;15.49;47.47;99246.28;4865940;28;104114;-84
2021/10/18 08:19:56;;;;;;;;;10.50;9.50;;;;;15.49;47.44;99235.38;4868675;28;102300;-84
2021/10/18 08:22:23;;;;;;;;;15.00;12.50;;;;;15.48;47.25;99248.16;4863304;28;102244;-84
2021/10/18 08:24:50;;;;;;;;;12.75;10.75;;;;;15.49;47.35;99246.28;4867171;28;102134;-84
2021/10/18 08:27:17;;;;;;;;;13.50;12.00;;;;;15.47;47.49;99249.22;4874528;28;108989;-84
2021/10/18 08:29:44;;;;;;;;;15.00;11.00;;;;;15.48;47.56;99252.78;4867159;28;102374;-84
2021/10/18 08:32:11;;;;;;;;;13.75;12.75;;;;;15.48;47.63;99241.88;4853431;28;103279;-84
2021/10/18 08:34:38;;;;;;;;;13.75;12.25;;;;;15.48;47.09;99253.63;4877893;28;102458;-85
2021/10/18 08:37:05;;;;;;;;;15.50;14.00;;;;;15.48;47.68;99258.22;4869911;28;104223;-84
2021/10/18 08:42:31;;;;;;;;;18.00;12.50;;;;;15.47;47.52;99254.66;4867124;28;102534;-84
2021/10/18 08:44:58;;;;;;;;;15.50;11.75;;;;;15.49;47.16;99257.19;4878725;28;102763;-84
2021/10/18 08:47:26;;;;;;;;;13.25;11.00;;;;;15.48;47.45;99253.63;4848366;28;104860;-85
2021/10/18 08:49:53;;;;;;;;;12.75;12.25;;;;;15.48;47.50;99248.16;4867993;28;102645;-85
2021/10/18 08:52:20;;;;;;;;;16.25;12.00;;;;;15.48;47.32;99250.91;4866075;28;102718;-85
2021/10/18 08:54:48;;;;;;;;;15.50;14.25;;;;;15.48;47.53;99240.00;4869477;28;102687;-85
2021/10/18 08:57:15;;;;;;;;;13.00;12.75;;;;;15.48;47.54;99239.16;4860259;28;104104;-85
2021/10/18 08:59:42;;;;;;;;;14.25;12.75;;;;;15.47;47.75;99253.81;4875000;28;103655;-85
2021/10/18 09:02:09;;;;;;;;;15.50;13.75;;;;;15.49;47.53;99259.91;4861600;28;102491;-86
2021/10/18 09:04:39;;;;;;;;;13.00;11.50;;;;;15.49;47.54;99263.44;4856678;28;102617;-86
2021/10/18 09:07:15;;;;;;;;;15.25;12.25;;;;;15.49;47.57;99260.72;4874579;28;104968;-85
2021/10/18 09:09:50;;;;;;;;;12.75;12.00;;;;;15.47;47.55;99251.94;4862071;28;103751;-86
2021/10/18 09:12:28;;;;;;;;;10.25;9.00;;;;;15.48;47.74;99260.97;4858439;28;102635;-86
2021/10/18 09:15:15;;;;;;;;;15.25;11.75;;;;;15.49;47.62;99262.63;4866108;28;102908;-85
2021/10/18 09:17:42;;;;;;;;;12.00;10.50;;;;;15.48;47.75;99260.97;4834427;28;104111;-86
2021/10/18 09:20:27;;;;;;;;;13.00;11.00;;;;;15.47;47.92;99259.28;4856599;28;102390;-85
2021/10/18 09:23:13;;;;;;;;;9.75;9.50;;;;;15.49;47.55;99268.09;4856924;28;102523;-85
2021/10/18 09:25:40;;;;;;;;;12.25;11.00;;;;;15.48;47.73;99267.25;4876038;28;102623;-86
2021/10/18 09:28:11;;;;;;;;;11.75;10.50;;;;;15.50;47.76;99261.56;4876993;28;103699;-85
2021/10/18 09:30:43;;;;;;;;;10.75;9.50;;;;;15.49;47.44;99268.91;4848867;28;103606;-85
2021/10/18 09:33:27;;;;;;;;;12.75;11.25;;;;;15.49;47.69;99271.63;4829402;28;102673;-86
2021/10/18 09:35:55;;;;;;;;;15.00;12.75;;;;;15.50;47.47;99269.75;4873027;28;102224;-85
2021/10/18 09:38:24;;;;;;;;;11.75;11.00;;;;;15.50;47.27;99269.75;4867740;28;104283;-85
2021/10/18 09:40:54;;;;;;;;;10.75;9.00;;;;;15.51;47.48;99276.91;4848388;28;104854;-85
2021/10/18 09:46:17;;;;;;;;;12.00;10.50;;;;;15.50;47.64;99275.19;4849312;28;102714;-85
2021/10/18 10:53:25;;;;;;;;;12.50;9.25;;;;;15.48;47.46;99299.97;4833118;28;103047;-85
2021/10/18 10:55:54;;;;;;;;;8.00;8.00;;;;;15.48;47.12;99294.50;4845224;28;108961;-85
2021/10/18 10:58:31;;;;;;;;;13.00;10.00;;;;;15.47;47.54;99294.72;4846029;28;102547;-85
2021/10/18 11:00:59;;;;;;;;;10.00;9.00;;;;;15.49;47.53;99295.34;4831784;28;102571;-85
2021/10/18 11:03:41;;;;;;;;;11.00;9.00;;;;;15.51;47.19;99293.25;4846577;28;102683;-85
2021/10/18 11:06:11;;;;;;;;;9.25;8.75;;;;;15.49;47.53;99295.34;4852565;28;104426;-85
2021/10/18 11:08:40;;;;;;;;;11.00;8.50;;;;;15.49;47.52;99295.34;4842521;28;104256;-85
2021/10/18 11:11:17;;;;;;;;;11.50;10.00;;;;;15.48;47.63;99289.06;4843146;28;102330;-85
2021/10/18 11:13:55;;;;;;;;;11.00;9.00;;;;;15.48;47.58;99288.22;4833871;28;104279;-86
2021/10/18 11:16:27;;;;;;;;;9.00;8.00;;;;;15.49;47.21;99289.91;4814049;28;108745;-85
2021/10/18 11:18:55;;;;;;;;;9.00;8.25;;;;;15.49;47.58;99290.72;4842142;28;102618;-85
2021/10/18 11:21:30;;;;;;;;;9.25;8.25;;;;;15.48;47.19;99293.66;4845803;28;102641;-85
2021/10/18 11:23:59;;;;;;;;;9.00;8.00;;;;;15.49;47.43;99287.97;4839185;28;102796;-85
2021/10/18 11:26:28;;;;;;;;;10.00;8.00;;;;;15.48;47.97;99289.06;4841303;28;104061;-85
2021/10/18 11:29:00;;;;;;;;;11.50;9.00;;;;;15.50;47.45;99291.53;4851886;28;102592;-85
2021/10/18 11:31:29;;;;;;;;;10.50;9.25;;;;;15.49;47.02;99289.91;4855073;28;102479;-85
2021/10/18 11:34:04;;;;;;;;;10.50;8.25;;;;;15.50;47.87;99291.53;4835010;28;107128;-85
2021/10/18 11:36:32;;;;;;;;;13.00;9.75;;;;;15.51;47.67;99287.81;4856062;28;104368;-85
2021/10/18 11:39:06;;;;;;;;;8.50;8.25;;;;;15.50;47.62;99291.53;4862907;28;102640;-85
2021/10/18 11:41:59;;;;;;;;;7.00;7.00;;;;;15.52;47.36;99294.94;4852265;28;103190;-85
2021/10/18 11:44:47;;;;;;;;;7.25;7.00;;;;;15.50;47.80;99291.53;4857200;28;103076;-85
2021/10/18 11:47:29;;;;;;;;;10.00;8.00;;;;;15.51;47.28;99298.72;4804495;28;104352;-86
2021/10/18 11:50:10;;;;;;;;;8.00;7.75;;;;;15.52;47.24;99300.38;4859303;28;102536;-85
2021/10/18 11:52:51;;;;;;;;;8.75;8.25;;;;;15.51;47.23;99298.72;4861834;28;102669;-85
2021/10/18 11:55:24;;;;;;;;;9.50;8.75;;;;;15.50;47.27;99288.81;4865557;28;102841;-86
2021/10/18 11:57:54;;;;;;;;;11.75;10.00;;;;;15.51;47.24;99294.09;4847861;28;108357;-85
2021/10/18 12:00:25;;;;;;;;;10.25;6.75;;;;;15.51;47.63;99293.25;4844695;28;102793;-86
2021/10/18 12:02:59;;;;;;;;;9.00;8.00;;;;;15.50;47.62;99288.81;4833445;28;102740;-86
2021/10/18 12:05:33;;;;;;;;;8.75;8.75;;;;;15.50;47.19;99286.09;4831442;28;104397;-84
2021/10/18 12:08:00;;;;;;;;;10.75;6.50;;;;;15.51;47.38;99285.09;4845312;28;103998;-85
2021/10/18 12:10:28;;;;;;;;;9.00;8.75;;;;;15.51;47.47;99287.81;4849225;28;102635;-85
2021/10/18 12:13:21;;;;;;;;;10.00;9.00;;;;;15.50;47.70;99283.38;4820787;28;102842;-85
2021/10/18 12:15:55;;;;;;;;;8.50;8.50;;;;;15.50;47.57;99280.66;4884891;28;102362;-86
2021/10/18 12:18:44;;;;;;;;;9.50;8.00;;;;;15.51;47.57;99288.66;4693227;28;104080;-85
2021/10/18 12:21:28;;;;;;;;;10.00;8.00;;;;;15.51;47.67;99294.09;4838026;28;102340;-85
2021/10/18 12:23:56;;;;;;;;;8.00;7.50;;;;;15.52;47.18;99301.22;4865681;28;102560;-86
2021/10/18 12:26:31;;;;;;;;;8.50;7.25;;;;;15.52;47.35;99303.97;4848993;28;102514;-85
2021/10/18 12:29:07;;;;;;;;;7.50;7.50;;;;;15.52;47.45;99305.84;4866088;28;103074;-86
2021/10/18 12:31:39;;;;;;;;;6.75;6.25;;;;;15.52;48.01;99300.38;4863208;28;102484;-85
2021/10/18 12:34:29;;;;;;;;;9.00;8.00;;;;;15.51;47.67;99299.56;4866527;28;102614;-85
2021/10/18 12:37:07;;;;;;;;;8.75;8.50;;;;;15.51;47.38;99295.97;4858453;28;102614;-85